Northeast Philadelphia Airport
KPNE : now visible

Airfield :











YOU CAN JOIN US ON...

 
LOGIN :

Register | Disclaimer

   EN    FR    IT 

 









Legend :    VFR   Marginal VFR   IFR   Intensive IFR   Very Intensive IFR
Visi :
Ceiling :
>= 8 km
>= 3000ft
5 to 8 km
1000 to 3000 ft
1500m to 5 km
500 to 1000 ft
800 to 1500m
200 to 500 ft
< 800m
< 200 ft
Symbols :   Thunderstorms  Fog  Heavy snow  Heavy precipitations  Wind > 20 kt







- Airport Elevation : 120 ft


KPNE - Northeast Philadelphia

CURRENT METAR :
  • 170854Z AUTO 06007KT 10SM BKN018 OVC029 22/17 A3008 RMK AO2 SLP184 T02170172 53005

EXPIRED METARs :
  • 170754Z AUTO 05006KT 10SM OVC029 22/18 A3007 RMK AO2 SLP180 T02170178
  • 170654Z AUTO 06003KT 10SM BKN027 OVC070 22/17 A3007 RMK AO2 SLP181 T02170172

TAF KPNE
Valid from the 17 at 07:00 until the 18 at 06:00 UTC


170704Z 1707/1806 05004KT P6SM SCT050
TEMPO 1707/1710 BKN025
FM180000 07003KT P6SM SKC
No reported NOTAMs for that airfield.



MET'MAP, your aeronautical weather chart ! - Copyright ORBIFLY December 2007 - Disclaimer

ORBIFLY MET'MAP TEAM :

Programming & Development : Alexandra Zaïnal
Concept & Development : Baudouin d'Aumeries
Co-Development & Prog : Marc-Olivier Méhu
Technical & hardware support : Manuel Goepfert

Contact : metmap@orbifly.com




SOURCES & CREDITS :

   NOAA       Earth
Advisory